KLMT/LMT METAR and TAF weather

Enter ICAO airport designator
Station Type Date Time Source
KLMT METAR 2022/12/04 11:53 UTC NOAA

KLMT 041153Z AUTO 16013KT 10SM -RA OVC039 01/00 A2980 RMK AO2 RAB25 SLP092 P0000 60000 T00110000 10033 20011 55002


Station Type Date Time Source
KLMT Decoded METAR 2022/12/04 11:53 UTC NOAA

KLAMATH FALLS INTERNATIONAL AIRPORT, OR, United States (KLMT) 42-09N 121-43W 1246M
Dec 04, 2022 - 06:53 AM EST / 2022.12.04 1153 UTC
Wind: from the SSE (160 degrees) at 15 MPH (13 KT):0
Visibility: 10 mile(s):0
Sky conditions: overcast
Weather: light rain
Precipitation last hour: A trace
Temperature: 34.0 F (1.1 C)
Windchill: 24 F (-4 C):1
Dew Point: 32.0 F (0.0 C)
Relative Humidity: 92%
Pressure (altimeter): 29.8 in. Hg (1009 hPa)
Pressure tendency: 0.01 inches (0.2 hPa) lower than three hours ago
ob: KLMT 041153Z AUTO 16013KT 10SM -RA OVC039 01/00 A2980 RMK AO2 RAB25 SLP092 P0000 60000 T00110000 10033 20011 55002
cycle: 12

Station Type Date Time Source
KLMT TAF 2022/12/04 12:42 UTC NOAA

TAF KLMT 041140Z 0412/0512 17012KT 6SM -RASN FEW009 BKN035 OVC070
TEMPO 0412/0413 5SM -SHSN BKN025 OVC035
FM041300 18010KT 4SM -SN SCT015 OVC025
FM041900 18011KT P6SM -SHRASN SCT025 OVC030
FM042300 19005KT P6SM OVC035
FM051000 13003KT 2SM BR SCT002 BKN060

Example: see airport list